createdAt,value
2022-09-23T00:04:56.844Z,8.3
2022-09-23T00:25:01.352Z,8.4
2022-09-23T00:35:03.674Z,8.5
2022-09-23T00:45:05.778Z,8.4
2022-09-23T01:05:10.630Z,8.3
2022-09-23T01:15:12.910Z,8.2
2022-09-23T01:25:15.526Z,8.3
2022-09-23T01:35:17.809Z,8.2
2022-09-23T01:55:21.884Z,8.2
2022-09-23T02:05:23.935Z,8.3
2022-09-23T02:25:28.879Z,8.3
2022-09-23T02:35:30.822Z,8.3
2022-09-23T02:45:33.274Z,8.3
2022-09-23T02:55:35.357Z,8.2
2022-09-23T03:05:38.030Z,8.1
2022-09-23T03:15:40.599Z,8.1
2022-09-23T03:25:43.178Z,8.2
2022-09-23T03:35:44.922Z,8.1
2022-09-23T03:45:47.162Z,8
2022-09-23T03:55:49.719Z,7.8
2022-09-23T04:05:51.889Z,7.7
2022-09-23T04:15:54.579Z,7.6
2022-09-23T04:25:56.823Z,7.5
2022-09-23T04:35:58.700Z,7.3
2022-09-23T04:56:03.173Z,7.2
2022-09-23T05:06:05.236Z,7.1
2022-09-23T05:16:07.377Z,7.1
2022-09-23T05:26:09.747Z,7.1
2022-09-23T05:36:11.947Z,7.1
2022-09-23T05:46:14.043Z,7.1
2022-09-23T05:56:15.946Z,7.2
2022-09-23T06:06:17.710Z,7.4
2022-09-23T06:26:21.488Z,7.8
2022-09-23T06:36:34.421Z,8.1
2022-09-23T06:46:25.928Z,9.2
2022-09-23T06:56:28.459Z,10.7
2022-09-23T07:26:34.639Z,13.5
2022-09-23T07:36:36.446Z,13.5
2022-09-23T07:46:38.411Z,13.7
2022-09-23T08:06:42.035Z,14.8
2022-09-23T08:16:44.692Z,14.9
2022-09-23T08:26:46.609Z,15.4
2022-09-23T08:36:49.270Z,15.7
2022-09-23T08:46:51.107Z,15.9
2022-09-23T09:07:00.193Z,15.7
2022-09-23T09:16:59.766Z,16.3
2022-09-23T09:18:25.691Z,16.3
2022-09-23T09:27:08.830Z,16.9
2022-09-23T09:47:13.926Z,16.8
2022-09-23T09:57:16.251Z,17.2
2022-09-23T10:07:18.233Z,17.3
2022-09-23T10:17:20.525Z,17.4
2022-09-23T10:27:23.083Z,17.4
2022-09-23T10:37:25.196Z,17.3
2022-09-23T10:57:29.645Z,17.8
2022-09-23T11:07:36.390Z,18.1
2022-09-23T11:17:34.376Z,18.4
2022-09-23T11:27:36.739Z,18.6
2022-09-23T11:37:39.374Z,19.5
2022-09-23T11:47:41.673Z,19
2022-09-23T11:57:48.768Z,19.6
2022-09-23T12:17:47.856Z,19.9
2022-09-23T12:57:55.977Z,19.8
2022-09-23T13:18:00.314Z,19.3
2022-09-23T13:38:03.891Z,19.2
2022-09-23T13:48:05.580Z,19.1
2022-09-23T14:08:09.204Z,19.1
2022-09-23T14:18:11.891Z,19.4
2022-09-23T14:28:14.132Z,19.4
2022-09-23T14:38:16.053Z,18.8
2022-09-23T14:58:19.963Z,18.6
2022-09-23T15:08:22.135Z,18.5
2022-09-23T15:18:23.968Z,18.3
2022-09-23T15:38:28.589Z,17.9
2022-09-23T15:58:33.134Z,17.7
2022-09-23T16:08:34.889Z,17.5
2022-09-23T16:28:38.897Z,17.4
2022-09-23T16:38:40.653Z,17.2
2022-09-23T16:48:43.688Z,17.1
2022-09-23T16:58:45.509Z,16.9
2022-09-23T17:08:48.018Z,16.6
2022-09-23T17:28:52.206Z,15.9
2022-09-23T17:38:54.115Z,15.6
2022-09-23T17:48:56.033Z,15.2
2022-09-23T17:58:58.449Z,15
2022-09-23T18:39:07.021Z,13.8
2022-09-23T18:49:09.160Z,13.9
2022-09-23T18:59:11.541Z,13.8
2022-09-23T19:09:13.426Z,13.7
2022-09-23T22:09:54.814Z,12.8
2022-09-23T22:29:58.689Z,12.8
2022-09-23T22:40:01.237Z,12.8
2022-09-23T22:50:03.199Z,12.7
2022-09-23T23:00:05.549Z,12.8
2022-09-23T23:30:11.839Z,12.7
2022-09-23T23:50:16.159Z,12.7
